sensor_id;sensor_type;location;lat;lon;timestamp;P1;durP1;ratioP1;P2;durP2;ratioP2
10497;SDS011;5296;51.060;13.750;2024-03-25T00:02:47;1.77;;;1.52;;
10497;SDS011;5296;51.060;13.750;2024-03-25T00:07:48;1.75;;;1.50;;
10497;SDS011;5296;51.060;13.750;2024-03-25T00:12:49;1.48;;;1.38;;
10497;SDS011;5296;51.060;13.750;2024-03-25T00:17:54;3.58;;;1.83;;
10497;SDS011;5296;51.060;13.750;2024-03-25T00:22:55;2.63;;;2.05;;
10497;SDS011;5296;51.060;13.750;2024-03-25T00:27:55;2.33;;;1.60;;
10497;SDS011;5296;51.060;13.750;2024-03-25T00:32:58;1.98;;;1.42;;
10497;SDS011;5296;51.060;13.750;2024-03-25T00:37:59;1.65;;;1.55;;
10497;SDS011;5296;51.060;13.750;2024-03-25T00:42:59;1.50;;;1.40;;
10497;SDS011;5296;51.060;13.750;2024-03-25T00:48:00;1.55;;;1.42;;
10497;SDS011;5296;51.060;13.750;2024-03-25T00:53:01;2.72;;;1.35;;
10497;SDS011;5296;51.060;13.750;2024-03-25T00:58:02;1.70;;;1.48;;
10497;SDS011;5296;51.060;13.750;2024-03-25T01:03:03;1.63;;;1.50;;
10497;SDS011;5296;51.060;13.750;2024-03-25T01:08:04;1.52;;;1.40;;
10497;SDS011;5296;51.060;13.750;2024-03-25T01:13:05;1.42;;;1.33;;
10497;SDS011;5296;51.060;13.750;2024-03-25T01:18:06;1.67;;;1.58;;
10497;SDS011;5296;51.060;13.750;2024-03-25T01:23:06;1.67;;;1.58;;
10497;SDS011;5296;51.060;13.750;2024-03-25T01:28:07;1.67;;;1.58;;
10497;SDS011;5296;51.060;13.750;2024-03-25T01:33:08;1.63;;;1.20;;
10497;SDS011;5296;51.060;13.750;2024-03-25T01:38:08;1.08;;;1.08;;
10497;SDS011;5296;51.060;13.750;2024-03-25T01:43:09;1.02;;;0.93;;
10497;SDS011;5296;51.060;13.750;2024-03-25T01:48:10;0.85;;;0.85;;
10497;SDS011;5296;51.060;13.750;2024-03-25T01:53:13;1.02;;;1.00;;
10497;SDS011;5296;51.060;13.750;2024-03-25T01:58:14;1.08;;;1.05;;
10497;SDS011;5296;51.060;13.750;2024-03-25T02:03:15;1.27;;;1.17;;
10497;SDS011;5296;51.060;13.750;2024-03-25T02:08:16;1.45;;;1.35;;
10497;SDS011;5296;51.060;13.750;2024-03-25T02:13:17;1.65;;;1.55;;
10497;SDS011;5296;51.060;13.750;2024-03-25T02:18:18;1.65;;;1.55;;
10497;SDS011;5296;51.060;13.750;2024-03-25T02:23:19;1.50;;;1.40;;
10497;SDS011;5296;51.060;13.750;2024-03-25T02:28:20;2.90;;;1.80;;
10497;SDS011;5296;51.060;13.750;2024-03-25T02:33:21;1.70;;;1.60;;
10497;SDS011;5296;51.060;13.750;2024-03-25T02:38:22;1.80;;;1.70;;
10497;SDS011;5296;51.060;13.750;2024-03-25T02:43:22;1.77;;;1.65;;
10497;SDS011;5296;51.060;13.750;2024-03-25T02:48:23;2.15;;;1.83;;
10497;SDS011;5296;51.060;13.750;2024-03-25T02:53:24;2.13;;;1.88;;
10497;SDS011;5296;51.060;13.750;2024-03-25T02:58:24;1.92;;;1.70;;
10497;SDS011;5296;51.060;13.750;2024-03-25T03:03:25;2.83;;;1.88;;
10497;SDS011;5296;51.060;13.750;2024-03-25T03:08:26;2.10;;;1.90;;
10497;SDS011;5296;51.060;13.750;2024-03-25T03:13:27;3.33;;;2.05;;
10497;SDS011;5296;51.060;13.750;2024-03-25T03:18:27;1.98;;;1.70;;
10497;SDS011;5296;51.060;13.750;2024-03-25T03:23:28;2.85;;;2.15;;
10497;SDS011;5296;51.060;13.750;2024-03-25T03:28:29;3.15;;;2.15;;
10497;SDS011;5296;51.060;13.750;2024-03-25T03:33:30;3.60;;;2.00;;
10497;SDS011;5296;51.060;13.750;2024-03-25T03:38:30;3.92;;;2.00;;
10497;SDS011;5296;51.060;13.750;2024-03-25T03:43:31;2.60;;;2.00;;
10497;SDS011;5296;51.060;13.750;2024-03-25T03:48:32;4.57;;;2.00;;
10497;SDS011;5296;51.060;13.750;2024-03-25T03:53:33;2.88;;;1.90;;
10497;SDS011;5296;51.060;13.750;2024-03-25T03:58:34;3.72;;;2.15;;
10497;SDS011;5296;51.060;13.750;2024-03-25T04:03:35;2.33;;;2.13;;
10497;SDS011;5296;51.060;13.750;2024-03-25T04:08:35;4.18;;;2.30;;
10497;SDS011;5296;51.060;13.750;2024-03-25T04:13:36;3.53;;;2.00;;
10497;SDS011;5296;51.060;13.750;2024-03-25T04:18:37;3.05;;;2.03;;
10497;SDS011;5296;51.060;13.750;2024-03-25T04:23:38;2.63;;;1.90;;
10497;SDS011;5296;51.060;13.750;2024-03-25T04:28:38;2.92;;;1.83;;
10497;SDS011;5296;51.060;13.750;2024-03-25T04:33:39;2.33;;;1.90;;
10497;SDS011;5296;51.060;13.750;2024-03-25T04:38:39;2.58;;;2.15;;
10497;SDS011;5296;51.060;13.750;2024-03-25T04:43:40;3.10;;;1.80;;
10497;SDS011;5296;51.060;13.750;2024-03-25T04:48:41;2.72;;;1.95;;
10497;SDS011;5296;51.060;13.750;2024-03-25T04:53:42;2.15;;;1.65;;
10497;SDS011;5296;51.060;13.750;2024-03-25T04:58:42;3.17;;;1.95;;
10497;SDS011;5296;51.060;13.750;2024-03-25T05:03:43;2.78;;;1.70;;
10497;SDS011;5296;51.060;13.750;2024-03-25T05:08:44;2.00;;;1.80;;
10497;SDS011;5296;51.060;13.750;2024-03-25T05:13:48;2.50;;;1.77;;
10497;SDS011;5296;51.060;13.750;2024-03-25T05:18:49;2.58;;;1.95;;
10497;SDS011;5296;51.060;13.750;2024-03-25T05:23:49;2.15;;;1.80;;
10497;SDS011;5296;51.060;13.750;2024-03-25T05:28:53;1.80;;;1.70;;
10497;SDS011;5296;51.060;13.750;2024-03-25T05:33:54;3.38;;;2.13;;
10497;SDS011;5296;51.060;13.750;2024-03-25T05:38:55;3.05;;;2.17;;
10497;SDS011;5296;51.060;13.750;2024-03-25T05:43:57;2.40;;;2.20;;
10497;SDS011;5296;51.060;13.750;2024-03-25T05:49:00;3.10;;;2.20;;
10497;SDS011;5296;51.060;13.750;2024-03-25T05:54:02;4.07;;;2.20;;
10497;SDS011;5296;51.060;13.750;2024-03-25T05:59:03;3.53;;;2.00;;
10497;SDS011;5296;51.060;13.750;2024-03-25T06:04:03;2.58;;;2.08;;
10497;SDS011;5296;51.060;13.750;2024-03-25T06:09:05;1.85;;;1.60;;
10497;SDS011;5296;51.060;13.750;2024-03-25T06:14:05;3.28;;;2.10;;
10497;SDS011;5296;51.060;13.750;2024-03-25T06:19:06;3.03;;;1.85;;
10497;SDS011;5296;51.060;13.750;2024-03-25T06:24:07;2.47;;;2.28;;
10497;SDS011;5296;51.060;13.750;2024-03-25T06:29:08;4.30;;;2.72;;
10497;SDS011;5296;51.060;13.750;2024-03-25T06:34:08;2.30;;;2.10;;
10497;SDS011;5296;51.060;13.750;2024-03-25T06:39:17;3.33;;;2.30;;
10497;SDS011;5296;51.060;13.750;2024-03-25T06:44:19;3.58;;;1.92;;
10497;SDS011;5296;51.060;13.750;2024-03-25T06:49:19;2.75;;;1.77;;
10497;SDS011;5296;51.060;13.750;2024-03-25T06:54:20;2.88;;;1.80;;
10497;SDS011;5296;51.060;13.750;2024-03-25T06:59:21;4.18;;;1.50;;
10497;SDS011;5296;51.060;13.750;2024-03-25T07:04:22;2.20;;;1.42;;
10497;SDS011;5296;51.060;13.750;2024-03-25T07:09:22;3.03;;;1.40;;
10497;SDS011;5296;51.060;13.750;2024-03-25T07:14:24;4.78;;;1.45;;
10497;SDS011;5296;51.060;13.750;2024-03-25T07:19:25;1.55;;;1.27;;
10497;SDS011;5296;51.060;13.750;2024-03-25T07:24:26;3.28;;;1.50;;
10497;SDS011;5296;51.060;13.750;2024-03-25T07:29:27;3.10;;;1.77;;
10497;SDS011;5296;51.060;13.750;2024-03-25T07:34:27;3.30;;;1.77;;
10497;SDS011;5296;51.060;13.750;2024-03-25T07:39:28;2.65;;;1.77;;
10497;SDS011;5296;51.060;13.750;2024-03-25T07:44:29;1.83;;;1.63;;
10497;SDS011;5296;51.060;13.750;2024-03-25T07:49:31;1.55;;;1.45;;
10497;SDS011;5296;51.060;13.750;2024-03-25T07:54:34;3.95;;;1.90;;
10497;SDS011;5296;51.060;13.750;2024-03-25T07:59:37;3.28;;;1.77;;
10497;SDS011;5296;51.060;13.750;2024-03-25T08:04:37;4.22;;;1.77;;
10497;SDS011;5296;51.060;13.750;2024-03-25T08:09:38;2.55;;;1.75;;
10497;SDS011;5296;51.060;13.750;2024-03-25T08:14:39;2.08;;;1.88;;
10497;SDS011;5296;51.060;13.750;2024-03-25T08:19:39;4.15;;;2.80;;
10497;SDS011;5296;51.060;13.750;2024-03-25T08:24:40;2.85;;;1.90;;
10497;SDS011;5296;51.060;13.750;2024-03-25T08:29:41;2.30;;;1.70;;
10497;SDS011;5296;51.060;13.750;2024-03-25T08:34:42;3.85;;;1.70;;
10497;SDS011;5296;51.060;13.750;2024-03-25T08:39:43;2.80;;;1.80;;
10497;SDS011;5296;51.060;13.750;2024-03-25T08:44:43;2.15;;;1.90;;
10497;SDS011;5296;51.060;13.750;2024-03-25T08:49:44;3.47;;;2.00;;
10497;SDS011;5296;51.060;13.750;2024-03-25T08:54:45;2.20;;;2.00;;
10497;SDS011;5296;51.060;13.750;2024-03-25T08:59:45;3.55;;;2.40;;
10497;SDS011;5296;51.060;13.750;2024-03-25T09:04:46;2.53;;;2.08;;
10497;SDS011;5296;51.060;13.750;2024-03-25T09:09:47;2.55;;;1.92;;
10497;SDS011;5296;51.060;13.750;2024-03-25T09:15:06;4.25;;;2.13;;
10497;SDS011;5296;51.060;13.750;2024-03-25T09:20:07;2.38;;;1.77;;
10497;SDS011;5296;51.060;13.750;2024-03-25T09:25:16;4.18;;;1.90;;
10497;SDS011;5296;51.060;13.750;2024-03-25T09:30:17;2.20;;;2.00;;
10497;SDS011;5296;51.060;13.750;2024-03-25T09:35:19;2.47;;;1.58;;
10497;SDS011;5296;51.060;13.750;2024-03-25T09:40:20;1.67;;;1.58;;
10497;SDS011;5296;51.060;13.750;2024-03-25T09:45:21;4.28;;;1.63;;
10497;SDS011;5296;51.060;13.750;2024-03-25T09:50:24;1.98;;;1.45;;
10497;SDS011;5296;51.060;13.750;2024-03-25T09:55:25;2.45;;;1.60;;
10497;SDS011;5296;51.060;13.750;2024-03-25T10:00:26;1.63;;;1.50;;
10497;SDS011;5296;51.060;13.750;2024-03-25T10:05:26;1.85;;;1.50;;
10497;SDS011;5296;51.060;13.750;2024-03-25T10:10:27;2.10;;;1.58;;
10497;SDS011;5296;51.060;13.750;2024-03-25T10:15:28;3.35;;;2.03;;
10497;SDS011;5296;51.060;13.750;2024-03-25T10:20:29;2.30;;;1.45;;
10497;SDS011;5296;51.060;13.750;2024-03-25T10:25:30;3.10;;;1.50;;
10497;SDS011;5296;51.060;13.750;2024-03-25T10:30:31;3.33;;;2.00;;
10497;SDS011;5296;51.060;13.750;2024-03-25T10:35:33;2.25;;;1.50;;
10497;SDS011;5296;51.060;13.750;2024-03-25T10:40:35;1.90;;;1.70;;
10497;SDS011;5296;51.060;13.750;2024-03-25T10:45:39;2.35;;;1.90;;
10497;SDS011;5296;51.060;13.750;2024-03-25T10:50:41;3.10;;;1.75;;
10497;SDS011;5296;51.060;13.750;2024-03-25T10:55:47;3.28;;;2.00;;
10497;SDS011;5296;51.060;13.750;2024-03-25T11:00:51;2.33;;;1.60;;
10497;SDS011;5296;51.060;13.750;2024-03-25T11:05:52;1.83;;;1.60;;
10497;SDS011;5296;51.060;13.750;2024-03-25T11:10:53;2.88;;;1.60;;
10497;SDS011;5296;51.060;13.750;2024-03-25T11:15:55;1.65;;;1.55;;
10497;SDS011;5296;51.060;13.750;2024-03-25T11:21:02;2.38;;;1.80;;
10497;SDS011;5296;51.060;13.750;2024-03-25T11:26:05;2.05;;;1.80;;
10497;SDS011;5296;51.060;13.750;2024-03-25T11:31:06;3.03;;;1.70;;
10497;SDS011;5296;51.060;13.750;2024-03-25T11:36:09;1.60;;;1.50;;
10497;SDS011;5296;51.060;13.750;2024-03-25T11:41:10;2.10;;;1.88;;
10497;SDS011;5296;51.060;13.750;2024-03-25T11:46:11;2.00;;;1.70;;
10497;SDS011;5296;51.060;13.750;2024-03-25T11:51:12;3.47;;;1.70;;
10497;SDS011;5296;51.060;13.750;2024-03-25T11:56:16;2.95;;;1.75;;
10497;SDS011;5296;51.060;13.750;2024-03-25T12:01:17;1.70;;;1.60;;
10497;SDS011;5296;51.060;13.750;2024-03-25T12:06:17;1.60;;;1.50;;
10497;SDS011;5296;51.060;13.750;2024-03-25T12:11:18;5.30;;;1.58;;
10497;SDS011;5296;51.060;13.750;2024-03-25T12:16:19;1.60;;;1.50;;
10497;SDS011;5296;51.060;13.750;2024-03-25T12:21:20;1.73;;;1.55;;
10497;SDS011;5296;51.060;13.750;2024-03-25T12:26:21;2.47;;;1.65;;
10497;SDS011;5296;51.060;13.750;2024-03-25T12:31:23;2.72;;;1.30;;
10497;SDS011;5296;51.060;13.750;2024-03-25T12:36:24;1.20;;;1.10;;
10497;SDS011;5296;51.060;13.750;2024-03-25T12:41:27;1.83;;;1.45;;
10497;SDS011;5296;51.060;13.750;2024-03-25T12:46:27;2.38;;;1.60;;
10497;SDS011;5296;51.060;13.750;2024-03-25T12:51:29;1.70;;;1.60;;
10497;SDS011;5296;51.060;13.750;2024-03-25T12:56:30;1.70;;;1.60;;
10497;SDS011;5296;51.060;13.750;2024-03-25T13:01:31;2.15;;;1.50;;
10497;SDS011;5296;51.060;13.750;2024-03-25T13:06:32;1.83;;;1.20;;
10497;SDS011;5296;51.060;13.750;2024-03-25T13:11:32;1.58;;;1.48;;
10497;SDS011;5296;51.060;13.750;2024-03-25T13:16:33;2.03;;;1.42;;
10497;SDS011;5296;51.060;13.750;2024-03-25T13:21:34;3.75;;;1.65;;
10497;SDS011;5296;51.060;13.750;2024-03-25T13:26:35;2.67;;;1.60;;
10497;SDS011;5296;51.060;13.750;2024-03-25T13:31:36;3.38;;;1.30;;
10497;SDS011;5296;51.060;13.750;2024-03-25T13:36:37;1.63;;;1.48;;
10497;SDS011;5296;51.060;13.750;2024-03-25T13:41:37;12.25;;;1.48;;
10497;SDS011;5296;51.060;13.750;2024-03-25T13:46:38;2.25;;;1.50;;
10497;SDS011;5296;51.060;13.750;2024-03-25T13:51:40;3.70;;;1.42;;
10497;SDS011;5296;51.060;13.750;2024-03-25T13:56:40;1.30;;;1.20;;
10497;SDS011;5296;51.060;13.750;2024-03-25T14:01:42;3.35;;;1.75;;
10497;SDS011;5296;51.060;13.750;2024-03-25T14:06:43;1.42;;;1.30;;
10497;SDS011;5296;51.060;13.750;2024-03-25T14:11:46;1.63;;;1.52;;
10497;SDS011;5296;51.060;13.750;2024-03-25T14:16:46;2.13;;;1.45;;
10497;SDS011;5296;51.060;13.750;2024-03-25T14:21:50;2.90;;;1.50;;
10497;SDS011;5296;51.060;13.750;2024-03-25T14:26:51;1.70;;;1.40;;
10497;SDS011;5296;51.060;13.750;2024-03-25T14:31:51;1.70;;;1.60;;
10497;SDS011;5296;51.060;13.750;2024-03-25T14:36:52;1.67;;;1.58;;
10497;SDS011;5296;51.060;13.750;2024-03-25T14:41:54;2.00;;;1.42;;
10497;SDS011;5296;51.060;13.750;2024-03-25T14:46:55;3.83;;;1.95;;
10497;SDS011;5296;51.060;13.750;2024-03-25T14:51:57;2.40;;;1.95;;
10497;SDS011;5296;51.060;13.750;2024-03-25T14:56:58;2.28;;;1.70;;
10497;SDS011;5296;51.060;13.750;2024-03-25T15:02:01;3.15;;;2.20;;
10497;SDS011;5296;51.060;13.750;2024-03-25T15:07:01;2.10;;;1.45;;
10497;SDS011;5296;51.060;13.750;2024-03-25T15:12:02;2.47;;;1.65;;
10497;SDS011;5296;51.060;13.750;2024-03-25T15:17:03;3.45;;;1.95;;
10497;SDS011;5296;51.060;13.750;2024-03-25T15:22:04;1.90;;;1.65;;
10497;SDS011;5296;51.060;13.750;2024-03-25T15:27:05;2.45;;;1.60;;
10497;SDS011;5296;51.060;13.750;2024-03-25T15:32:06;2.38;;;1.60;;
10497;SDS011;5296;51.060;13.750;2024-03-25T15:37:07;2.78;;;1.65;;
10497;SDS011;5296;51.060;13.750;2024-03-25T15:42:08;2.22;;;1.60;;
10497;SDS011;5296;51.060;13.750;2024-03-25T15:47:09;2.63;;;1.65;;
10497;SDS011;5296;51.060;13.750;2024-03-25T15:52:11;3.03;;;1.45;;
10497;SDS011;5296;51.060;13.750;2024-03-25T15:57:12;2.30;;;1.50;;
10497;SDS011;5296;51.060;13.750;2024-03-25T16:02:13;3.00;;;1.45;;
10497;SDS011;5296;51.060;13.750;2024-03-25T16:07:14;2.85;;;1.95;;
10497;SDS011;5296;51.060;13.750;2024-03-25T16:12:15;1.95;;;1.33;;
10497;SDS011;5296;51.060;13.750;2024-03-25T16:17:15;4.70;;;1.63;;
10497;SDS011;5296;51.060;13.750;2024-03-25T16:22:16;1.98;;;1.50;;
10497;SDS011;5296;51.060;13.750;2024-03-25T16:27:17;1.75;;;1.40;;
10497;SDS011;5296;51.060;13.750;2024-03-25T16:32:18;3.15;;;1.70;;
10497;SDS011;5296;51.060;13.750;2024-03-25T16:37:19;1.63;;;1.40;;
10497;SDS011;5296;51.060;13.750;2024-03-25T16:42:20;2.15;;;1.35;;
10497;SDS011;5296;51.060;13.750;2024-03-25T16:47:21;2.05;;;1.60;;
10497;SDS011;5296;51.060;13.750;2024-03-25T16:52:22;3.05;;;1.70;;
10497;SDS011;5296;51.060;13.750;2024-03-25T16:57:23;4.47;;;1.95;;
10497;SDS011;5296;51.060;13.750;2024-03-25T17:02:24;2.22;;;1.40;;
10497;SDS011;5296;51.060;13.750;2024-03-25T17:07:26;1.85;;;1.55;;
10497;SDS011;5296;51.060;13.750;2024-03-25T17:12:27;4.50;;;1.83;;
10497;SDS011;5296;51.060;13.750;2024-03-25T17:17:28;2.85;;;2.03;;
10497;SDS011;5296;51.060;13.750;2024-03-25T17:22:29;3.28;;;2.05;;
10497;SDS011;5296;51.060;13.750;2024-03-25T17:27:29;3.35;;;1.90;;
10497;SDS011;5296;51.060;13.750;2024-03-25T17:32:30;2.28;;;1.80;;
10497;SDS011;5296;51.060;13.750;2024-03-25T17:37:31;2.85;;;1.90;;
10497;SDS011;5296;51.060;13.750;2024-03-25T17:42:31;3.78;;;1.80;;
10497;SDS011;5296;51.060;13.750;2024-03-25T17:47:32;10.65;;;4.50;;
10497;SDS011;5296;51.060;13.750;2024-03-25T17:52:34;7.97;;;3.60;;
10497;SDS011;5296;51.060;13.750;2024-03-25T17:57:35;2.38;;;1.90;;
10497;SDS011;5296;51.060;13.750;2024-03-25T18:02:35;4.10;;;2.13;;
10497;SDS011;5296;51.060;13.750;2024-03-25T18:07:36;3.42;;;2.20;;
10497;SDS011;5296;51.060;13.750;2024-03-25T18:12:41;8.70;;;3.60;;
10497;SDS011;5296;51.060;13.750;2024-03-25T18:17:42;6.10;;;3.20;;
10497;SDS011;5296;51.060;13.750;2024-03-25T18:22:43;5.97;;;3.78;;
10497;SDS011;5296;51.060;13.750;2024-03-25T18:27:44;5.85;;;3.40;;
10497;SDS011;5296;51.060;13.750;2024-03-25T18:32:44;3.90;;;2.85;;
10497;SDS011;5296;51.060;13.750;2024-03-25T18:37:46;3.55;;;2.47;;
10497;SDS011;5296;51.060;13.750;2024-03-25T18:42:47;3.47;;;3.17;;
10497;SDS011;5296;51.060;13.750;2024-03-25T18:47:47;5.35;;;3.60;;
10497;SDS011;5296;51.060;13.750;2024-03-25T18:52:48;5.78;;;3.38;;
10497;SDS011;5296;51.060;13.750;2024-03-25T18:57:49;4.32;;;3.10;;
10497;SDS011;5296;51.060;13.750;2024-03-25T19:02:49;6.03;;;4.20;;
10497;SDS011;5296;51.060;13.750;2024-03-25T19:07:50;4.97;;;3.20;;
10497;SDS011;5296;51.060;13.750;2024-03-25T19:12:51;5.68;;;3.45;;
10497;SDS011;5296;51.060;13.750;2024-03-25T19:17:52;4.85;;;3.17;;
10497;SDS011;5296;51.060;13.750;2024-03-25T19:22:53;6.15;;;3.42;;
10497;SDS011;5296;51.060;13.750;2024-03-25T19:27:53;3.60;;;3.10;;
10497;SDS011;5296;51.060;13.750;2024-03-25T19:32:54;4.32;;;3.35;;
10497;SDS011;5296;51.060;13.750;2024-03-25T19:37:55;5.95;;;4.10;;
10497;SDS011;5296;51.060;13.750;2024-03-25T19:42:56;4.68;;;4.03;;
10497;SDS011;5296;51.060;13.750;2024-03-25T19:47:56;6.32;;;4.93;;
10497;SDS011;5296;51.060;13.750;2024-03-25T19:52:57;5.80;;;4.35;;
10497;SDS011;5296;51.060;13.750;2024-03-25T19:57:58;6.43;;;4.65;;
10497;SDS011;5296;51.060;13.750;2024-03-25T20:02:59;6.20;;;5.22;;
10497;SDS011;5296;51.060;13.750;2024-03-25T20:08:00;4.97;;;4.18;;
10497;SDS011;5296;51.060;13.750;2024-03-25T20:13:01;6.95;;;4.57;;
10497;SDS011;5296;51.060;13.750;2024-03-25T20:18:01;6.15;;;4.43;;
10497;SDS011;5296;51.060;13.750;2024-03-25T20:23:03;6.78;;;4.88;;
10497;SDS011;5296;51.060;13.750;2024-03-25T20:28:04;6.07;;;4.22;;
10497;SDS011;5296;51.060;13.750;2024-03-25T20:33:05;6.60;;;4.55;;
10497;SDS011;5296;51.060;13.750;2024-03-25T20:38:10;4.95;;;4.07;;
10497;SDS011;5296;51.060;13.750;2024-03-25T20:43:10;9.75;;;4.57;;
10497;SDS011;5296;51.060;13.750;2024-03-25T20:48:12;5.07;;;4.07;;
10497;SDS011;5296;51.060;13.750;2024-03-25T20:53:13;6.90;;;4.57;;
10497;SDS011;5296;51.060;13.750;2024-03-25T20:58:14;7.57;;;4.75;;
10497;SDS011;5296;51.060;13.750;2024-03-25T21:03:14;5.70;;;4.90;;
10497;SDS011;5296;51.060;13.750;2024-03-25T21:08:15;6.05;;;4.40;;
10497;SDS011;5296;51.060;13.750;2024-03-25T21:13:16;5.40;;;4.10;;
10497;SDS011;5296;51.060;13.750;2024-03-25T21:18:17;6.28;;;4.30;;
10497;SDS011;5296;51.060;13.750;2024-03-25T21:23:17;4.75;;;4.20;;
10497;SDS011;5296;51.060;13.750;2024-03-25T21:28:18;5.72;;;4.40;;
10497;SDS011;5296;51.060;13.750;2024-03-25T21:33:19;6.53;;;4.47;;
10497;SDS011;5296;51.060;13.750;2024-03-25T21:38:20;5.88;;;4.45;;
10497;SDS011;5296;51.060;13.750;2024-03-25T21:43:21;5.50;;;4.10;;
10497;SDS011;5296;51.060;13.750;2024-03-25T21:48:23;6.93;;;4.15;;
10497;SDS011;5296;51.060;13.750;2024-03-25T21:53:24;5.40;;;4.78;;
10497;SDS011;5296;51.060;13.750;2024-03-25T21:58:26;6.18;;;4.65;;
10497;SDS011;5296;51.060;13.750;2024-03-25T22:03:27;7.60;;;4.15;;
10497;SDS011;5296;51.060;13.750;2024-03-25T22:08:27;7.35;;;4.97;;
10497;SDS011;5296;51.060;13.750;2024-03-25T22:13:28;5.07;;;4.57;;
10497;SDS011;5296;51.060;13.750;2024-03-25T22:18:29;7.05;;;4.53;;
10497;SDS011;5296;51.060;13.750;2024-03-25T22:23:30;6.03;;;4.20;;
10497;SDS011;5296;51.060;13.750;2024-03-25T22:28:30;5.45;;;4.30;;
10497;SDS011;5296;51.060;13.750;2024-03-25T22:33:32;5.40;;;4.60;;
10497;SDS011;5296;51.060;13.750;2024-03-25T22:38:33;4.88;;;4.28;;
10497;SDS011;5296;51.060;13.750;2024-03-25T22:43:33;5.47;;;4.45;;
10497;SDS011;5296;51.060;13.750;2024-03-25T22:48:34;5.35;;;4.15;;
10497;SDS011;5296;51.060;13.750;2024-03-25T22:53:35;6.13;;;4.40;;
10497;SDS011;5296;51.060;13.750;2024-03-25T22:58:36;5.85;;;4.22;;
10497;SDS011;5296;51.060;13.750;2024-03-25T23:03:37;4.90;;;4.35;;
10497;SDS011;5296;51.060;13.750;2024-03-25T23:08:38;5.32;;;4.57;;
10497;SDS011;5296;51.060;13.750;2024-03-25T23:13:40;4.93;;;4.32;;
10497;SDS011;5296;51.060;13.750;2024-03-25T23:18:41;6.83;;;4.60;;
10497;SDS011;5296;51.060;13.750;2024-03-25T23:23:42;4.82;;;4.07;;
10497;SDS011;5296;51.060;13.750;2024-03-25T23:28:42;6.07;;;4.00;;
10497;SDS011;5296;51.060;13.750;2024-03-25T23:33:43;5.18;;;4.47;;
10497;SDS011;5296;51.060;13.750;2024-03-25T23:38:44;4.90;;;4.33;;
10497;SDS011;5296;51.060;13.750;2024-03-25T23:43:44;6.60;;;4.35;;
10497;SDS011;5296;51.060;13.750;2024-03-25T23:48:45;6.43;;;4.57;;
10497;SDS011;5296;51.060;13.750;2024-03-25T23:53:46;5.40;;;3.90;;
10497;SDS011;5296;51.060;13.750;2024-03-25T23:58:46;4.97;;;4.20;;
